Time;durP1;ratioP1;P1;durP2;ratioP2;P2;SDS_P1;SDS_P2;PMS_P1;PMS_P2;Temp;Humidity;BMP_temperature;BMP_pressure;BME280_temperature;BME280_humidity;BME280_pressure;Samples;Min_cycle;Max_cycle;Signal;HPM_P1;HPM_P2
2021/12/01 00:01:06;;;;;;;5.10;3.43;;;5.40;80.00;;;;;;4966014;28;20038;-80
2021/12/01 00:03:32;;;;;;;4.73;2.77;;;5.50;80.00;;;;;;4961637;28;20381;-80
2021/12/01 00:05:58;;;;;;;4.67;2.57;;;5.50;79.90;;;;;;4980563;28;20047;-80
2021/12/01 00:08:24;;;;;;;6.77;2.57;;;5.50;80.00;;;;;;4965905;28;20386;-80
2021/12/01 00:10:50;;;;;;;3.40;2.63;;;5.50;79.70;;;;;;4988933;28;20030;-80
2021/12/01 00:13:19;;;;;;;3.97;2.83;;;5.50;79.80;;;;;;4983631;28;20419;-80
2021/12/01 00:15:46;;;;;;;4.67;2.37;;;5.50;79.60;;;;;;4963409;28;20027;-80
2021/12/01 00:18:13;;;;;;;7.70;3.20;;;5.40;79.70;;;;;;4965364;28;20031;-80
2021/12/01 00:20:39;;;;;;;3.60;2.20;;;5.50;79.50;;;;;;4965894;28;20039;-80
2021/12/01 00:23:05;;;;;;;3.90;3.00;;;5.40;79.60;;;;;;4961115;28;20089;-80
2021/12/01 00:25:35;;;;;;;6.30;3.40;;;5.50;79.70;;;;;;4978616;28;20054;-80
2021/12/01 00:28:01;;;;;;;4.13;2.23;;;5.50;79.90;;;;;;4980818;28;20034;-80
2021/12/01 00:30:27;;;;;;;4.50;3.40;;;5.40;79.70;;;;;;4963337;28;20391;-80
2021/12/01 00:32:54;;;;;;;5.40;3.30;;;5.40;79.70;;;;;;4962309;28;20034;-80
2021/12/01 00:35:20;;;;;;;3.40;2.63;;;5.40;79.70;;;;;;4965344;28;20026;-80
2021/12/01 00:37:46;;;;;;;4.23;2.83;;;5.40;79.80;;;;;;4964295;28;20988;-80
2021/12/01 00:40:12;;;;;;;4.07;2.40;;;5.40;79.70;;;;;;4956924;28;20034;-80
2021/12/01 00:42:40;;;;;;;5.20;2.23;;;5.50;79.70;;;;;;4964836;28;20136;-80
2021/12/01 00:45:12;;;;;;;2.93;2.20;;;5.40;79.50;;;;;;4979550;28;20085;-80
2021/12/01 00:47:49;;;;;;;3.85;2.22;;;5.40;79.50;;;;;;4965889;28;20038;-80
2021/12/01 00:50:29;;;;;;;3.80;3.17;;;5.50;79.60;;;;;;4960189;28;20117;-80
2021/12/01 00:52:59;;;;;;;3.87;2.87;;;5.50;79.50;;;;;;4961286;28;20482;-80
2021/12/01 00:55:25;;;;;;;3.13;2.13;;;5.50;79.60;;;;;;4956267;28;20090;-80
2021/12/01 00:57:51;;;;;;;3.43;2.10;;;5.40;79.70;;;;;;4975762;28;20482;-80
2021/12/01 01:00:19;;;;;;;7.47;2.77;;;5.50;79.60;;;;;;4965448;28;20066;-80
2021/12/01 01:02:45;;;;;;;6.43;2.57;;;5.40;79.50;;;;;;4976557;28;20145;-80
2021/12/01 01:05:11;;;;;;;3.93;2.40;;;5.50;79.50;;;;;;4957751;28;20467;-80
2021/12/01 01:07:37;;;;;;;5.23;3.00;;;5.50;79.60;;;;;;4976790;28;20042;-80
2021/12/01 01:19:02;;;;;;;5.27;3.37;;;5.40;79.50;;;;;;4983588;28;20037;-80
2021/12/01 01:21:35;;;;;;;8.48;3.10;;;5.50;79.50;;;;;;4971354;28;20026;-80
2021/12/01 01:24:02;;;;;;;6.90;4.20;;;5.50;79.50;;;;;;4981763;28;20034;-80
2021/12/01 01:26:29;;;;;;;5.10;3.50;;;5.50;79.50;;;;;;4964028;28;20034;-80
2021/12/01 01:28:55;;;;;;;4.47;2.60;;;5.50;79.40;;;;;;4966107;28;20109;-80
2021/12/01 01:31:21;;;;;;;2.87;2.40;;;5.50;79.50;;;;;;4966972;28;20117;-80
2021/12/01 01:33:49;;;;;;;3.33;2.40;;;5.50;79.50;;;;;;4983197;28;20031;-80
2021/12/01 01:36:15;;;;;;;5.17;3.37;;;5.60;79.40;;;;;;4967441;28;20018;-80
2021/12/01 01:38:42;;;;;;;7.40;3.63;;;5.60;79.30;;;;;;4987976;28;20033;-80
2021/12/01 01:41:11;;;;;;;5.10;4.20;;;5.60;79.30;;;;;;4980212;28;20125;-80
2021/12/01 01:43:38;;;;;;;6.50;4.83;;;5.60;79.30;;;;;;4981991;28;20518;-80
2021/12/01 01:46:05;;;;;;;7.57;5.40;;;5.60;79.10;;;;;;4984786;28;20026;-80
2021/12/01 01:48:32;;;;;;;5.50;4.37;;;5.60;79.10;;;;;;4989042;28;20335;-80
2021/12/01 01:51:02;;;;;;;6.83;4.97;;;5.60;79.20;;;;;;4981562;28;20406;-80
2021/12/01 01:53:30;;;;;;;8.77;6.83;;;5.60;79.10;;;;;;4984220;28;20387;-80
2021/12/01 01:55:59;;;;;;;9.03;5.90;;;5.60;79.80;;;;;;4979174;28;20021;-80
2021/12/01 01:58:26;;;;;;;10.90;7.43;;;5.60;79.20;;;;;;4960143;28;20026;-80
2021/12/01 02:01:06;;;;;;;13.30;9.63;;;5.60;79.10;;;;;;4962258;28;20027;-80
2021/12/01 02:03:41;;;;;;;22.80;16.87;;;5.60;79.30;;;;;;4962711;28;20105;-80
2021/12/01 02:06:09;;;;;;;13.37;9.40;;;5.60;79.10;;;;;;4983903;28;20045;-80
2021/12/01 02:08:39;;;;;;;11.70;9.03;;;5.60;79.10;;;;;;4983215;28;20114;-80
2021/12/01 02:11:11;;;;;;;7.73;6.90;;;5.60;79.20;;;;;;4966117;28;20026;-80
2021/12/01 02:13:38;;;;;;;8.73;6.53;;;5.60;79.30;;;;;;4965359;28;20019;-81
2021/12/01 02:16:04;;;;;;;6.90;5.80;;;5.60;79.20;;;;;;4964304;28;20046;-80
2021/12/01 02:18:30;;;;;;;7.73;5.63;;;5.60;79.20;;;;;;4963913;28;20022;-80
2021/12/01 02:21:07;;;;;;;6.10;5.20;;;5.70;79.10;;;;;;4979169;28;20492;-81
2021/12/01 02:23:37;;;;;;;6.00;4.97;;;5.60;79.10;;;;;;4981780;28;20029;-80
2021/12/01 02:26:04;;;;;;;7.50;6.00;;;5.60;79.00;;;;;;4983467;28;20069;-80
2021/12/01 02:28:31;;;;;;;6.87;4.93;;;5.60;79.10;;;;;;4962691;28;20077;-80
2021/12/01 02:30:58;;;;;;;5.10;4.40;;;5.60;79.10;;;;;;4987882;28;20035;-80
2021/12/01 02:33:24;;;;;;;8.53;5.00;;;5.60;79.10;;;;;;4985405;28;20054;-80
2021/12/01 02:35:50;;;;;;;6.87;4.47;;;5.60;79.10;;;;;;4968296;28;20022;-80
2021/12/01 02:38:17;;;;;;;7.07;4.87;;;5.60;79.20;;;;;;4967766;28;20027;-80
2021/12/01 02:40:44;;;;;;;5.30;4.67;;;5.60;79.20;;;;;;4990102;28;20030;-80
2021/12/01 02:43:09;;;;;;;6.17;4.83;;;5.60;79.00;;;;;;4978048;28;20031;-80
2021/12/01 02:45:35;;;;;;;10.07;5.40;;;5.50;79.00;;;;;;4985036;28;20420;-80
2021/12/01 02:48:02;;;;;;;8.97;5.00;;;5.50;79.10;;;;;;4963307;28;20041;-80
2021/12/01 02:50:27;;;;;;;4.60;3.80;;;5.50;79.10;;;;;;4961532;28;20028;-80
2021/12/01 02:52:53;;;;;;;5.83;3.87;;;5.60;79.20;;;;;;4960127;28;20026;-80
2021/12/01 02:55:20;;;;;;;5.60;3.20;;;5.50;79.00;;;;;;4961280;28;20038;-80
2021/12/01 02:57:51;;;;;;;3.57;2.77;;;5.50;79.00;;;;;;4968302;28;20030;-80
2021/12/01 03:00:18;;;;;;;4.60;2.73;;;5.50;79.10;;;;;;4964093;28;20035;-80
2021/12/01 03:02:45;;;;;;;5.87;2.80;;;5.50;79.10;;;;;;4975513;28;20034;-80
2021/12/01 03:05:12;;;;;;;8.20;3.03;;;5.50;79.10;;;;;;4963490;28;20038;-80
2021/12/01 03:07:38;;;;;;;4.37;2.30;;;5.50;79.10;;;;;;4976632;28;20039;-80
2021/12/01 03:10:07;;;;;;;2.10;1.40;;;5.60;79.20;;;;;;4963699;28;20035;-80
2021/12/01 03:12:37;;;;;;;4.03;1.80;;;5.60;79.10;;;;;;4966032;28;20430;-80
2021/12/01 03:15:05;;;;;;;3.23;1.60;;;5.60;79.10;;;;;;4981565;28;20041;-80
2021/12/01 03:17:32;;;;;;;5.33;2.30;;;5.60;79.20;;;;;;4963146;28;20038;-81
2021/12/01 03:19:58;;;;;;;4.57;2.33;;;5.60;79.10;;;;;;4964463;28;20055;-81
2021/12/01 03:22:24;;;;;;;8.23;4.77;;;5.50;79.10;;;;;;4979145;28;20031;-80
2021/12/01 03:24:53;;;;;;;29.00;7.17;;;5.50;78.90;;;;;;4962650;28;20047;-80
2021/12/01 03:27:20;;;;;;;7.20;5.40;;;5.50;78.90;;;;;;4958787;28;20031;-80
2021/12/01 03:29:47;;;;;;;5.07;4.57;;;5.50;79.20;;;;;;4960820;28;20038;-80
2021/12/01 03:32:13;;;;;;;7.00;4.40;;;5.50;79.20;;;;;;4963111;28;20030;-80
2021/12/01 03:34:40;;;;;;;5.00;4.30;;;5.60;79.10;;;;;;4974755;28;20089;-80
2021/12/01 03:37:07;;;;;;;6.07;3.97;;;5.50;78.90;;;;;;4963484;28;20762;-80
2021/12/01 03:39:32;;;;;;;5.17;3.60;;;5.60;78.90;;;;;;4982986;28;20022;-80
2021/12/01 03:41:59;;;;;;;6.70;4.07;;;5.50;79.70;;;;;;4961657;28;20545;-80
2021/12/01 03:44:24;;;;;;;4.57;3.13;;;5.60;79.30;;;;;;4961397;28;20064;-80
2021/12/01 03:46:51;;;;;;;4.40;2.90;;;5.60;79.00;;;;;;4981295;28;20108;-80
2021/12/01 03:49:17;;;;;;;4.23;3.33;;;5.60;79.20;;;;;;4987657;28;20038;-80
2021/12/01 03:51:43;;;;;;;9.47;7.40;;;5.60;79.30;;;;;;4963652;28;20494;-80
2021/12/01 03:54:09;;;;;;;9.10;7.77;;;5.60;79.10;;;;;;4985358;28;20053;-80
2021/12/01 03:56:35;;;;;;;9.87;7.63;;;5.60;79.00;;;;;;4967873;28;20026;-80
2021/12/01 03:59:03;;;;;;;10.73;8.20;;;5.60;78.80;;;;;;4977910;28;20029;-80
2021/12/01 04:01:29;;;;;;;11.90;7.90;;;5.60;79.20;;;;;;4961140;28;20537;-81
2021/12/01 04:03:55;;;;;;;11.47;8.10;;;5.60;79.70;;;;;;4984075;28;20030;-81
2021/12/01 04:06:21;;;;;;;11.97;9.23;;;5.60;79.00;;;;;;4980311;28;20030;-80
2021/12/01 04:08:47;;;;;;;14.30;8.97;;;5.60;79.00;;;;;;4965538;28;20045;-81
2021/12/01 04:11:13;;;;;;;6.97;4.80;;;5.60;78.90;;;;;;4977952;28;20551;-80
2021/12/01 04:13:39;;;;;;;6.00;4.43;;;5.60;79.30;;;;;;4960720;28;20018;-81
2021/12/01 04:16:05;;;;;;;8.20;5.87;;;5.70;79.10;;;;;;4968102;28;20033;-81
2021/12/01 04:18:30;;;;;;;6.20;4.87;;;5.70;79.10;;;;;;4983207;28;20031;-81
2021/12/01 04:20:56;;;;;;;5.33;4.20;;;5.80;79.10;;;;;;4970798;28;20049;-81
2021/12/01 04:23:22;;;;;;;7.33;5.13;;;5.80;79.00;;;;;;4964361;28;20117;-80
2021/12/01 04:25:48;;;;;;;6.90;5.50;;;5.80;78.90;;;;;;4964223;28;20027;-80
2021/12/01 04:28:14;;;;;;;6.73;5.50;;;5.80;78.90;;;;;;4980194;28;20033;-81
2021/12/01 04:30:40;;;;;;;5.00;4.50;;;5.80;79.20;;;;;;4963766;28;20489;-81
2021/12/01 04:33:06;;;;;;;9.53;5.50;;;5.90;79.40;;;;;;4982183;28;20031;-81
2021/12/01 04:35:33;;;;;;;5.83;3.93;;;6.00;79.50;;;;;;4964441;28;20081;-81
2021/12/01 04:37:59;;;;;;;4.23;3.63;;;6.10;78.80;;;;;;4985151;28;20031;-81
2021/12/01 04:40:25;;;;;;;7.50;4.17;;;6.10;79.10;;;;;;4983805;28;20033;-81
2021/12/01 04:42:51;;;;;;;6.40;4.20;;;6.10;78.60;;;;;;4959380;28;20402;-81
2021/12/01 04:45:19;;;;;;;4.87;3.70;;;6.10;78.50;;;;;;4964256;28;20034;-81
2021/12/01 04:47:50;;;;;;;4.80;3.93;;;6.10;78.50;;;;;;4966222;28;20485;-80
2021/12/01 04:50:18;;;;;;;4.93;4.43;;;6.00;78.60;;;;;;4981229;28;20023;-81
2021/12/01 04:52:45;;;;;;;5.03;4.53;;;6.00;78.60;;;;;;4987178;28;20030;-81
2021/12/01 04:55:11;;;;;;;9.03;5.43;;;5.90;78.50;;;;;;4982683;28;20069;-80
2021/12/01 04:57:45;;;;;;;7.33;4.37;;;5.90;78.60;;;;;;4986982;28;20478;-80
2021/12/01 05:00:15;;;;;;;4.90;4.40;;;5.90;78.60;;;;;;4962821;28;20034;-81
2021/12/01 05:02:40;;;;;;;6.27;4.57;;;5.90;78.60;;;;;;4970287;28;20030;-80
2021/12/01 05:05:06;;;;;;;5.73;4.73;;;5.90;78.60;;;;;;4965143;28;20030;-80
2021/12/01 05:07:32;;;;;;;9.50;5.33;;;5.90;78.50;;;;;;4989831;28;20092;-80
2021/12/01 05:09:59;;;;;;;6.67;5.00;;;5.90;78.60;;;;;;4966051;28;20023;-81
2021/12/01 05:12:24;;;;;;;5.63;5.03;;;5.80;78.60;;;;;;4982597;28;20451;-80
2021/12/01 05:14:51;;;;;;;6.97;5.07;;;5.80;78.70;;;;;;4965808;28;20086;-80
2021/12/01 05:17:19;;;;;;;5.50;4.30;;;5.90;78.60;;;;;;4975498;28;20482;-80
2021/12/01 05:19:45;;;;;;;5.40;4.90;;;5.90;78.60;;;;;;4988432;28;20077;-81
2021/12/01 05:22:10;;;;;;;6.80;5.53;;;5.90;78.50;;;;;;4968646;28;20034;-80
2021/12/01 05:24:36;;;;;;;6.17;4.80;;;5.90;78.40;;;;;;4971834;28;20023;-80
2021/12/01 05:27:02;;;;;;;6.67;4.67;;;5.80;78.60;;;;;;4983792;28;20041;-80
2021/12/01 05:29:28;;;;;;;6.23;4.80;;;5.80;78.50;;;;;;4965889;28;20117;-80
2021/12/01 05:31:55;;;;;;;4.77;4.27;;;5.80;78.40;;;;;;4984836;28;20110;-80
2021/12/01 05:34:21;;;;;;;5.83;5.07;;;5.70;78.40;;;;;;4964878;28;20034;-80
2021/12/01 05:36:47;;;;;;;6.03;5.00;;;5.80;78.60;;;;;;4962142;28;20030;-80
2021/12/01 05:39:13;;;;;;;6.60;5.23;;;5.80;78.40;;;;;;4983236;28;20426;-81
2021/12/01 05:41:39;;;;;;;7.33;5.50;;;5.70;78.50;;;;;;4963944;28;20030;-80
2021/12/01 05:44:05;;;;;;;8.43;5.27;;;5.70;78.60;;;;;;4985883;28;20026;-80
2021/12/01 05:46:30;;;;;;;7.60;6.30;;;5.70;78.60;;;;;;4963649;28;20046;-81
2021/12/01 05:48:56;;;;;;;7.40;5.77;;;5.70;78.50;;;;;;4963488;28;20026;-80
2021/12/01 05:51:22;;;;;;;6.90;5.47;;;5.70;78.70;;;;;;4972747;28;20027;-80
2021/12/01 05:53:49;;;;;;;9.47;6.47;;;5.70;78.80;;;;;;4967737;28;20113;-80
2021/12/01 05:56:19;;;;;;;9.93;6.80;;;5.70;78.80;;;;;;4960165;28;20050;-80
2021/12/01 05:58:45;;;;;;;7.27;5.77;;;5.80;78.70;;;;;;4962797;28;20144;-80
2021/12/01 06:01:10;;;;;;;12.87;7.97;;;5.80;78.50;;;;;;4964872;28;20082;-80
2021/12/01 06:03:38;;;;;;;15.03;10.83;;;5.80;78.60;;;;;;4979674;28;20031;-80
2021/12/01 06:06:04;;;;;;;14.40;8.67;;;5.80;78.60;;;;;;4971834;28;20116;-80
2021/12/01 06:08:30;;;;;;;13.23;8.20;;;5.80;78.50;;;;;;4981009;28;20502;-80
2021/12/01 06:10:56;;;;;;;10.93;7.30;;;5.80;78.60;;;;;;4981976;28;20015;-80
2021/12/01 06:13:24;;;;;;;10.67;8.13;;;5.80;78.50;;;;;;4981888;28;20018;-80
2021/12/01 06:15:50;;;;;;;15.07;9.47;;;5.80;78.50;;;;;;4964803;28;20115;-80
2021/12/01 06:18:17;;;;;;;15.93;10.47;;;5.70;78.50;;;;;;4962370;28;20092;-80
2021/12/01 06:20:43;;;;;;;13.30;9.63;;;5.80;78.70;;;;;;4984180;28;20054;-80
2021/12/01 06:23:10;;;;;;;13.37;8.80;;;5.80;78.60;;;;;;4985785;28;20038;-80
2021/12/01 06:25:36;;;;;;;11.20;8.03;;;5.80;78.50;;;;;;4962200;28;20027;-80
2021/12/01 06:28:03;;;;;;;14.60;8.30;;;5.80;78.50;;;;;;4972100;28;20052;-80
2021/12/01 06:30:32;;;;;;;10.63;7.67;;;5.80;78.50;;;;;;4969983;28;20109;-80
2021/12/01 06:32:58;;;;;;;12.47;8.00;;;5.80;78.50;;;;;;4972026;28;20034;-80
2021/12/01 06:35:24;;;;;;;13.70;7.97;;;5.80;78.50;;;;;;4963237;28;20030;-80
2021/12/01 06:37:55;;;;;;;13.30;7.67;;;5.80;78.40;;;;;;4967140;28;20157;-80
2021/12/01 06:40:22;;;;;;;17.37;11.77;;;5.80;78.60;;;;;;4964822;28;20114;-80
2021/12/01 06:42:48;;;;;;;29.20;19.63;;;5.80;78.60;;;;;;4984823;28;20026;-80
2021/12/01 06:45:16;;;;;;;25.20;17.83;;;5.80;78.60;;;;;;4978968;28;20033;-80
2021/12/01 06:47:42;;;;;;;16.77;10.40;;;5.80;78.50;;;;;;4967666;28;20027;-80
2021/12/01 06:50:10;;;;;;;18.57;10.00;;;5.80;78.50;;;;;;4984600;28;20382;-80
2021/12/01 06:52:36;;;;;;;14.67;9.20;;;5.80;78.40;;;;;;4965667;28;20027;-80
2021/12/01 06:55:04;;;;;;;16.10;9.27;;;5.80;78.40;;;;;;4963159;28;20053;-80
2021/12/01 06:57:30;;;;;;;12.67;9.87;;;5.80;78.40;;;;;;4986048;28;20099;-80
2021/12/01 06:59:56;;;;;;;15.27;9.37;;;5.80;78.40;;;;;;4978891;28;20101;-80
2021/12/01 07:02:22;;;;;;;18.70;9.87;;;5.80;78.50;;;;;;4965476;28;20035;-80
2021/12/01 07:04:48;;;;;;;16.27;10.53;;;5.80;78.40;;;;;;4963757;28;20034;-80
2021/12/01 07:07:13;;;;;;;13.30;10.40;;;5.80;78.40;;;;;;4979766;28;20034;-80
2021/12/01 07:09:39;;;;;;;19.50;10.83;;;5.80;78.40;;;;;;4961771;28;20026;-80
2021/12/01 07:12:05;;;;;;;17.63;10.90;;;5.80;78.40;;;;;;4991023;28;20030;-80
2021/12/01 07:14:31;;;;;;;20.53;11.67;;;5.80;78.40;;;;;;4983846;28;20078;-80
2021/12/01 07:16:57;;;;;;;21.87;11.63;;;5.80;78.30;;;;;;4972994;28;20096;-80
2021/12/01 07:19:22;;;;;;;18.07;12.57;;;5.80;78.20;;;;;;4965838;28;20034;-80
2021/12/01 07:21:48;;;;;;;20.33;12.90;;;5.80;78.30;;;;;;4972210;28;20105;-80
2021/12/01 07:24:16;;;;;;;18.63;12.60;;;5.80;78.70;;;;;;4987303;28;20026;-80
2021/12/01 07:26:42;;;;;;;20.53;13.73;;;5.80;78.60;;;;;;4958821;28;20034;-80
2021/12/01 07:29:08;;;;;;;17.70;13.17;;;5.80;78.40;;;;;;4994280;28;20088;-81
2021/12/01 07:31:34;;;;;;;18.53;13.90;;;5.80;78.40;;;;;;4959664;28;20019;-80
2021/12/01 07:34:00;;;;;;;22.47;13.97;;;5.90;78.50;;;;;;4977150;28;20030;-80
2021/12/01 07:36:26;;;;;;;16.40;14.10;;;5.90;78.50;;;;;;4979630;28;20082;-80
2021/12/01 07:38:53;;;;;;;16.37;13.13;;;5.90;78.40;;;;;;4980630;28;20030;-80
2021/12/01 07:41:20;;;;;;;24.13;18.10;;;5.90;78.40;;;;;;4959425;28;20039;-81
2021/12/01 07:43:47;;;;;;;26.87;17.80;;;5.90;78.30;;;;;;4979256;28;20443;-81
2021/12/01 07:46:13;;;;;;;30.77;19.03;;;5.90;78.40;;;;;;4960244;28;20054;-80
2021/12/01 07:48:40;;;;;;;30.07;19.33;;;5.90;78.20;;;;;;4975966;28;20031;-80
2021/12/01 07:51:06;;;;;;;28.93;20.77;;;6.00;78.40;;;;;;4980438;28;20034;-80
2021/12/01 07:53:32;;;;;;;22.67;17.33;;;6.00;78.40;;;;;;4962922;28;20026;-81
2021/12/01 07:55:58;;;;;;;22.87;17.50;;;6.00;78.40;;;;;;4974952;28;20035;-80
2021/12/01 07:58:24;;;;;;;26.53;17.57;;;6.00;78.40;;;;;;4957595;28;20045;-80
2021/12/01 08:00:50;;;;;;;20.80;16.10;;;6.00;78.40;;;;;;4984474;28;20481;-81
2021/12/01 08:03:15;;;;;;;24.87;15.80;;;6.00;78.40;;;;;;4968351;28;20037;-81
2021/12/01 08:05:42;;;;;;;23.80;17.17;;;6.10;78.50;;;;;;4968796;28;20036;-81
2021/12/01 08:08:10;;;;;;;26.33;18.77;;;6.10;78.30;;;;;;4976741;28;20049;-81
2021/12/01 08:10:36;;;;;;;27.53;18.47;;;6.10;78.20;;;;;;4977973;28;20019;-80
2021/12/01 08:13:02;;;;;;;25.27;16.67;;;6.10;78.20;;;;;;4976987;28;20503;-80
2021/12/01 08:15:28;;;;;;;23.53;17.67;;;6.20;78.30;;;;;;4967593;28;20030;-80
2021/12/01 08:17:54;;;;;;;23.00;18.07;;;6.20;78.20;;;;;;4955594;28;20050;-81
2021/12/01 08:20:20;;;;;;;30.00;19.73;;;6.20;78.10;;;;;;4980221;28;20054;-81
2021/12/01 08:22:46;;;;;;;27.17;20.13;;;6.20;78.20;;;;;;4964565;28;20114;-81
2021/12/01 08:25:13;;;;;;;31.77;18.60;;;6.20;78.10;;;;;;4962255;28;20126;-81
2021/12/01 08:27:39;;;;;;;20.20;15.67;;;6.20;78.20;;;;;;4967572;28;20037;-81
2021/12/01 08:30:06;;;;;;;27.83;17.53;;;6.20;78.20;;;;;;4972925;28;20022;-81
2021/12/01 08:32:32;;;;;;;20.97;15.73;;;6.10;78.30;;;;;;4980453;28;20037;-81
2021/12/01 08:34:58;;;;;;;28.77;18.10;;;6.20;78.10;;;;;;4991368;28;20034;-81
2021/12/01 08:37:24;;;;;;;36.30;20.23;;;6.10;78.20;;;;;;4972331;28;20516;-81
2021/12/01 08:39:50;;;;;;;41.17;24.27;;;6.20;78.40;;;;;;4962976;28;20031;-81
2021/12/01 08:42:22;;;;;;;34.87;22.47;;;6.30;78.30;;;;;;4993135;28;20039;-81
2021/12/01 08:44:49;;;;;;;40.60;23.97;;;6.20;78.30;;;;;;4977838;28;20035;-81
2021/12/01 08:47:18;;;;;;;38.23;20.57;;;6.20;78.40;;;;;;4970206;28;20018;-81
2021/12/01 08:49:44;;;;;;;33.27;23.23;;;6.20;78.30;;;;;;4966303;28;20023;-81
2021/12/01 08:52:10;;;;;;;30.90;19.10;;;6.20;78.50;;;;;;4988802;28;20026;-81
2021/12/01 08:54:37;;;;;;;31.17;20.87;;;6.20;78.20;;;;;;4981565;28;20406;-81
2021/12/01 08:57:03;;;;;;;26.13;18.10;;;6.20;78.50;;;;;;4979079;28;20081;-81
2021/12/01 08:59:30;;;;;;;24.97;17.03;;;6.20;78.50;;;;;;4970524;28;20370;-81
2021/12/01 09:01:56;;;;;;;24.27;17.37;;;6.30;78.50;;;;;;4968894;28;20101;-81
2021/12/01 09:04:21;;;;;;;27.17;19.33;;;6.30;78.20;;;;;;4967103;28;20124;-81
2021/12/01 09:06:47;;;;;;;31.73;19.27;;;6.30;78.10;;;;;;4987622;28;20498;-81
2021/12/01 09:09:19;;;;;;;42.40;24.10;;;6.30;78.50;;;;;;4986481;28;20394;-81
2021/12/01 09:11:50;;;;;;;37.03;23.33;;;6.40;78.60;;;;;;4970701;28;20398;-81
2021/12/01 09:14:18;;;;;;;31.53;22.77;;;6.40;78.50;;;;;;4985259;28;20536;-80
2021/12/01 09:16:45;;;;;;;34.37;23.27;;;6.40;78.50;;;;;;4964443;28;20019;-81
2021/12/01 09:19:11;;;;;;;30.30;22.83;;;6.60;78.60;;;;;;4983392;28;20027;-81
2021/12/01 09:21:37;;;;;;;31.80;23.37;;;6.70;78.50;;;;;;4984898;28;20041;-81
2021/12/01 09:24:04;;;;;;;31.50;21.43;;;6.80;78.20;;;;;;4983005;28;20034;-81
2021/12/01 09:26:31;;;;;;;42.27;22.07;;;7.00;78.20;;;;;;4982236;28;20398;-81
2021/12/01 09:28:57;;;;;;;31.20;20.13;;;7.10;78.10;;;;;;4982311;28;20037;-81
2021/12/01 09:31:23;;;;;;;28.40;19.60;;;7.10;78.00;;;;;;4987266;28;20026;-81
2021/12/01 09:33:49;;;;;;;26.90;18.77;;;7.30;78.10;;;;;;4965535;28;20027;-81
2021/12/01 09:36:15;;;;;;;25.13;18.50;;;7.50;77.90;;;;;;4986442;28;20029;-81
2021/12/01 09:38:42;;;;;;;23.13;18.03;;;7.70;77.40;;;;;;4984713;28;20992;-81
2021/12/01 09:41:09;;;;;;;24.93;16.30;;;7.90;77.40;;;;;;4968053;28;20042;-81
2021/12/01 09:43:35;;;;;;;24.50;16.10;;;8.10;77.30;;;;;;4965350;28;20030;-81
2021/12/01 09:46:04;;;;;;;20.00;15.57;;;8.20;76.70;;;;;;4968188;28;20030;-81
2021/12/01 09:48:32;;;;;;;23.90;16.30;;;8.20;76.70;;;;;;4964672;28;20041;-81
2021/12/01 09:50:58;;;;;;;21.03;15.60;;;8.20;76.40;;;;;;4965899;28;20035;-81
2021/12/01 09:53:24;;;;;;;20.90;14.27;;;8.20;76.70;;;;;;4960968;28;20443;-81
2021/12/01 09:55:50;;;;;;;23.43;15.97;;;8.20;76.50;;;;;;4980925;28;20058;-80
2021/12/01 09:58:24;;;;;;;19.30;14.00;;;8.10;76.20;;;;;;4964563;28;20026;-81
2021/12/01 10:00:53;;;;;;;22.27;13.77;;;8.00;76.30;;;;;;4971691;28;20034;-81
2021/12/01 10:03:19;;;;;;;17.57;12.00;;;8.00;76.50;;;;;;4965694;28;20447;-81
2021/12/01 10:06:06;;;;;;;13.20;10.90;;;8.00;76.30;;;;;;4981723;28;20458;-81
2021/12/01 10:08:49;;;;;;;14.00;9.70;;;8.00;76.30;;;;;;4965862;28;20362;-80
2021/12/01 10:11:17;;;;;;;11.23;9.20;;;8.00;76.00;;;;;;4972542;28;20030;-80
2021/12/01 10:13:54;;;;;;;13.00;10.20;;;8.00;76.40;;;;;;4970839;28;20030;-81
2021/12/01 10:16:21;;;;;;;17.63;10.00;;;8.00;76.30;;;;;;4961189;28;20023;-81
2021/12/01 10:18:49;;;;;;;15.17;9.53;;;8.00;76.20;;;;;;4967105;28;20038;-80
2021/12/01 10:21:33;;;;;;;18.63;12.30;;;8.00;76.10;;;;;;4965630;28;20386;-81
2021/12/01 10:24:10;;;;;;;12.53;9.67;;;8.10;76.00;;;;;;4974854;28;20113;-81
2021/12/01 10:26:39;;;;;;;14.83;10.07;;;8.10;76.00;;;;;;4971829;28;20027;-81
2021/12/01 10:29:09;;;;;;;13.67;9.57;;;8.10;76.00;;;;;;4982242;28;20035;-81
2021/12/01 10:31:47;;;;;;;14.57;10.43;;;8.30;76.10;;;;;;4981669;28;20019;-80
2021/12/01 10:34:26;;;;;;;16.70;10.60;;;8.50;75.80;;;;;;4967772;28;20105;-80
2021/12/01 10:37:12;;;;;;;13.53;9.67;;;8.70;75.70;;;;;;4964316;28;20106;-81
2021/12/01 10:39:39;;;;;;;15.43;11.30;;;9.10;75.50;;;;;;4968403;28;20057;-81
2021/12/01 10:42:07;;;;;;;15.37;11.63;;;9.30;74.80;;;;;;4978680;28;20031;-81
2021/12/01 10:44:35;;;;;;;19.10;12.23;;;9.50;74.40;;;;;;4987524;28;20022;-81
2021/12/01 10:47:09;;;;;;;16.00;11.50;;;9.70;74.30;;;;;;4967641;28;20398;-81
2021/12/01 10:49:40;;;;;;;15.47;12.23;;;9.80;73.20;;;;;;4978149;28;20154;-81
2021/12/01 10:52:28;;;;;;;15.20;12.30;;;9.70;73.10;;;;;;4962078;28;20026;-81
2021/12/01 10:55:26;;;;;;;13.77;11.70;;;9.90;73.40;;;;;;4961128;28;20074;-81
2021/12/01 10:57:55;;;;;;;15.63;10.60;;;10.00;73.30;;;;;;4932763;28;20042;-81
2021/12/01 11:00:31;;;;;;;20.37;12.97;;;10.20;73.50;;;;;;4982858;28;20030;-81
2021/12/01 11:03:09;;;;;;;15.07;10.73;;;10.40;72.90;;;;;;4967864;28;20050;-81
2021/12/01 11:05:41;;;;;;;13.87;10.23;;;10.50;71.60;;;;;;4962539;28;20043;-81
2021/12/01 11:08:25;;;;;;;12.57;10.13;;;10.40;71.70;;;;;;4977664;28;20146;-81
2021/12/01 11:11:03;;;;;;;11.43;9.57;;;10.50;72.30;;;;;;4960292;28;20398;-81
2021/12/01 11:13:32;;;;;;;11.60;10.00;;;10.60;71.90;;;;;;4987386;28;20026;-81
2021/12/01 11:16:00;;;;;;;14.60;10.20;;;10.60;71.20;;;;;;4968382;28;20034;-81
2021/12/01 11:18:28;;;;;;;13.83;10.60;;;10.60;71.50;;;;;;4970268;28;20073;-81
2021/12/01 11:20:57;;;;;;;12.97;9.97;;;10.60;72.00;;;;;;4985132;28;20029;-81
2021/12/01 11:23:24;;;;;;;14.03;10.50;;;10.60;71.20;;;;;;4965716;28;20371;-81
2021/12/01 11:25:57;;;;;;;12.80;10.37;;;10.70;71.40;;;;;;4975617;28;20023;-81
2021/12/01 11:28:27;;;;;;;12.90;9.73;;;10.80;71.40;;;;;;4975937;28;20034;-81
2021/12/01 11:30:56;;;;;;;11.10;9.40;;;11.00;71.20;;;;;;4963195;28;20447;-81
2021/12/01 11:33:23;;;;;;;12.53;10.07;;;11.10;70.90;;;;;;4987386;28;20026;-81
2021/12/01 11:35:52;;;;;;;10.30;9.10;;;11.10;70.40;;;;;;4984726;28;20022;-82
2021/12/01 11:38:19;;;;;;;9.57;7.97;;;11.20;70.20;;;;;;4963121;28;20035;-81
2021/12/01 11:40:46;;;;;;;12.60;8.10;;;11.20;70.00;;;;;;4963778;28;20081;-81
2021/12/01 11:43:13;;;;;;;10.37;6.87;;;11.20;69.80;;;;;;4965410;28;20030;-81
2021/12/01 11:45:41;;;;;;;11.03;6.93;;;11.20;69.80;;;;;;4972569;28;20038;-82
2021/12/01 11:48:26;;;;;;;10.70;9.60;;;11.20;69.70;;;;;;4966733;28;20047;-81
2021/12/01 11:50:57;;;;;;;10.87;7.87;;;11.20;69.00;;;;;;4978264;28;20525;-81
2021/12/01 11:53:26;;;;;;;9.57;6.47;;;11.20;68.90;;;;;;4964933;28;20089;-82
2021/12/01 11:55:59;;;;;;;9.03;7.23;;;11.20;68.90;;;;;;4963895;28;20490;-81
2021/12/01 11:58:40;;;;;;;7.30;6.07;;;11.20;68.80;;;;;;4960968;28;20096;-82
2021/12/01 12:01:27;;;;;;;9.23;6.53;;;11.20;68.60;;;;;;4982454;28;20037;-81
2021/12/01 12:04:01;;;;;;;9.10;7.43;;;11.10;68.80;;;;;;4980699;28;20041;-82
2021/12/01 12:06:29;;;;;;;8.83;6.77;;;11.20;68.40;;;;;;4958001;28;20318;-82
2021/12/01 12:09:03;;;;;;;9.10;7.60;;;11.30;68.50;;;;;;4961900;28;20052;-81
2021/12/01 12:11:36;;;;;;;11.10;8.70;;;11.30;68.20;;;;;;4980513;28;20124;-81
2021/12/01 12:14:18;;;;;;;11.30;8.98;;;11.30;67.80;;;;;;4966758;28;20104;-81
2021/12/01 12:17:06;;;;;;;13.13;8.85;;;11.20;67.60;;;;;;4962718;28;20035;-81
2021/12/01 12:19:44;;;;;;;11.47;8.67;;;11.20;67.60;;;;;;4990098;28;20064;-82
2021/12/01 12:22:29;;;;;;;12.00;9.10;;;11.20;67.40;;;;;;4971634;28;20034;-82
2021/12/01 12:24:57;;;;;;;12.53;8.40;;;11.10;67.60;;;;;;4968420;28;20085;-82
2021/12/01 12:27:43;;;;;;;14.43;9.53;;;11.10;67.60;;;;;;4956270;28;20053;-82
2021/12/01 12:30:30;;;;;;;12.53;9.13;;;11.10;67.80;;;;;;4967150;28;20037;-81
2021/12/01 12:33:21;;;;;;;12.20;8.47;;;11.00;67.70;;;;;;4968751;28;20053;-82
2021/12/01 12:35:49;;;;;;;9.40;8.40;;;10.90;67.50;;;;;;4982578;28;20031;-82
2021/12/01 12:38:16;;;;;;;11.30;9.00;;;10.90;67.70;;;;;;4982840;28;20041;-81
2021/12/01 12:40:43;;;;;;;12.30;9.37;;;10.80;67.60;;;;;;4960754;28;20027;-81
2021/12/01 12:43:20;;;;;;;11.90;9.27;;;10.80;67.50;;;;;;4967960;28;20023;-80
2021/12/01 12:46:06;;;;;;;13.80;11.40;;;10.70;67.50;;;;;;4980627;28;20074;-80
2021/12/01 12:48:35;;;;;;;17.27;11.93;;;10.50;67.20;;;;;;4964437;28;20034;-80
2021/12/01 12:51:16;;;;;;;18.83;13.17;;;10.40;67.90;;;;;;4959515;28;20037;-80
2021/12/01 12:54:09;;;;;;;16.63;11.73;;;10.30;68.10;;;;;;4961017;28;20039;-80
2021/12/01 12:56:36;;;;;;;15.13;12.23;;;10.20;68.00;;;;;;4976688;28;20058;-80
2021/12/01 12:59:33;;;;;;;15.90;13.67;;;10.10;68.40;;;;;;4955704;28;20034;-81
2021/12/01 13:02:09;;;;;;;14.40;12.23;;;10.00;68.30;;;;;;4968650;28;20071;-81